createdAt,value
2023-01-22T00:03:29.928Z,19.00
2023-01-22T00:10:32.687Z,14.70
2023-01-22T00:17:34.693Z,15.50
2023-01-22T00:24:36.761Z,20.20
2023-01-22T00:31:40.241Z,21.15
2023-01-22T00:38:42.560Z,14.05
2023-01-22T00:45:44.612Z,14.90
2023-01-22T00:52:46.776Z,12.73
2023-01-22T00:59:49.710Z,17.30
2023-01-22T01:06:51.707Z,14.77
2023-01-22T01:13:54.231Z,18.23
2023-01-22T01:20:57.195Z,14.50
2023-01-22T01:28:00.101Z,16.00
2023-01-22T01:35:02.069Z,13.07
2023-01-22T01:42:04.182Z,12.20
2023-01-22T01:49:06.379Z,15.60
2023-01-22T01:56:16.483Z,16.27
2023-01-22T02:03:19.401Z,11.48
2023-01-22T02:10:21.501Z,10.13
2023-01-22T02:17:23.548Z,8.85
2023-01-22T02:24:25.823Z,10.07
2023-01-22T02:31:27.760Z,9.70
2023-01-22T02:38:29.972Z,7.75
2023-01-22T02:45:32.195Z,7.68
2023-01-22T02:52:34.293Z,7.82
2023-01-22T02:59:36.250Z,9.82
2023-01-22T03:06:40.677Z,8.10
2023-01-22T03:14:00.929Z,8.02
2023-01-22T03:21:19.120Z,8.35
2023-01-22T03:28:21.166Z,8.90
2023-01-22T03:35:23.184Z,8.05
2023-01-22T03:42:25.764Z,6.90
2023-01-22T03:49:27.893Z,5.90
2023-01-22T03:56:30.057Z,6.18
2023-01-22T04:03:32.440Z,11.48
2023-01-22T04:10:34.411Z,10.27
2023-01-22T04:17:36.389Z,6.45
2023-01-22T04:24:38.404Z,6.30
2023-01-22T04:31:40.516Z,8.52
2023-01-22T04:38:42.584Z,6.28
2023-01-22T04:45:44.805Z,6.00
2023-01-22T04:52:46.931Z,7.05
2023-01-22T04:59:48.984Z,7.70
2023-01-22T05:06:51.241Z,6.93
2023-01-22T05:13:54.663Z,7.40
2023-01-22T05:20:56.619Z,6.47
2023-01-22T05:27:58.934Z,7.97
2023-01-22T05:35:00.959Z,6.57
2023-01-22T05:42:02.919Z,12.20
2023-01-22T05:49:05.381Z,13.90
2023-01-22T05:56:07.661Z,17.80
2023-01-22T06:03:09.667Z,14.68
2023-01-22T06:10:11.900Z,11.23
2023-01-22T06:17:13.982Z,11.90
2023-01-22T06:24:15.996Z,9.57
2023-01-22T06:31:18.062Z,10.90
2023-01-22T06:38:20.183Z,10.20
2023-01-22T06:45:22.520Z,7.60
2023-01-22T06:52:24.626Z,8.50
2023-01-22T06:59:26.825Z,10.93
2023-01-22T07:06:28.949Z,12.10
2023-01-22T07:13:34.336Z,12.90
2023-01-22T07:20:40.727Z,15.20
2023-01-22T07:27:47.857Z,11.18
2023-01-22T07:34:54.832Z,16.13
2023-01-22T07:42:03.566Z,12.20
2023-01-22T07:49:10.665Z,10.60
2023-01-22T07:56:17.674Z,14.93
2023-01-22T08:03:26.543Z,15.77
2023-01-22T08:10:29.056Z,10.82
2023-01-22T08:17:31.047Z,12.68
2023-01-22T08:24:34.700Z,10.45
2023-01-22T08:31:36.726Z,16.48
2023-01-22T08:38:52.954Z,11.77
2023-01-22T08:45:56.964Z,12.15
2023-01-22T08:53:02.241Z,10.38
2023-01-22T09:00:06.853Z,10.90
2023-01-22T09:07:19.928Z,11.30
2023-01-22T09:14:28.305Z,14.52
2023-01-22T09:21:32.152Z,13.57
2023-01-22T09:28:36.335Z,15.32
2023-01-22T09:35:47.557Z,13.20
2023-01-22T09:42:55.086Z,16.33
2023-01-22T09:50:27.923Z,19.40
2023-01-22T09:57:49.913Z,16.92
2023-01-22T10:05:18.576Z,21.77
2023-01-22T10:12:25.572Z,21.35
2023-01-22T10:19:38.148Z,20.15
2023-01-22T10:26:57.633Z,19.10
2023-01-22T10:34:25.854Z,21.45
2023-01-22T10:41:33.182Z,18.27
2023-01-22T10:48:37.338Z,20.00
2023-01-22T10:55:42.334Z,18.13
2023-01-22T11:02:57.739Z,19.35
2023-01-22T11:10:22.161Z,21.40
2023-01-22T11:17:51.081Z,17.58
2023-01-22T11:24:56.613Z,16.20
2023-01-22T11:32:17.045Z,24.98
2023-01-22T11:39:50.268Z,19.50
2023-01-22T11:47:22.712Z,18.38
2023-01-22T11:54:34.436Z,23.23
2023-01-22T12:01:54.581Z,18.48
2023-01-22T12:09:08.879Z,14.32
2023-01-22T12:16:19.090Z,12.75
2023-01-22T12:23:38.992Z,24.98
2023-01-22T12:30:46.754Z,11.98
2023-01-22T12:38:15.545Z,18.42
2023-01-22T12:45:34.718Z,21.13
2023-01-22T12:52:43.642Z,17.48
2023-01-22T12:59:52.171Z,19.80
2023-01-22T13:07:05.947Z,19.35
2023-01-22T13:14:20.958Z,18.50
2023-01-22T13:21:29.210Z,13.18
2023-01-22T13:28:31.620Z,12.77
2023-01-22T13:35:36.669Z,18.60
2023-01-22T13:42:44.368Z,14.48
2023-01-22T13:49:46.772Z,20.20
2023-01-22T13:56:49.473Z,15.43
2023-01-22T14:04:02.589Z,13.32
2023-01-22T14:11:04.858Z,15.73
2023-01-22T14:18:16.521Z,13.48
2023-01-22T14:25:18.914Z,14.10
2023-01-22T14:32:24.472Z,13.60
2023-01-22T14:39:27.074Z,20.00
2023-01-22T14:46:29.511Z,14.15
2023-01-22T14:53:32.121Z,16.23
2023-01-22T15:00:35.482Z,18.13
2023-01-22T15:07:38.392Z,28.38
2023-01-22T15:14:40.805Z,15.30
2023-01-22T15:21:43.293Z,17.70
2023-01-22T15:28:45.807Z,17.55
2023-01-22T15:35:48.032Z,20.55
2023-01-22T15:42:51.316Z,16.45
2023-01-22T15:49:55.084Z,18.52
2023-01-22T15:56:58.618Z,17.45
2023-01-22T16:04:05.074Z,21.13
2023-01-22T16:11:08.531Z,17.33
2023-01-22T16:18:11.608Z,22.83
2023-01-22T16:25:14.683Z,16.13
2023-01-22T16:32:22.243Z,17.65
2023-01-22T16:39:29.016Z,18.98
2023-01-22T16:46:33.477Z,17.25
2023-01-22T16:53:35.980Z,14.27
2023-01-22T17:00:42.120Z,19.85
2023-01-22T17:07:45.067Z,15.82
2023-01-22T17:14:48.865Z,18.02
2023-01-22T17:22:06.343Z,19.13
2023-01-22T17:29:14.831Z,15.07
2023-01-22T17:36:22.918Z,16.58
2023-01-22T17:43:25.870Z,17.55
2023-01-22T17:50:29.683Z,17.20
2023-01-22T17:57:32.617Z,17.65
2023-01-22T18:04:37.155Z,18.83
2023-01-22T18:11:41.723Z,18.92
2023-01-22T18:18:48.082Z,12.23
2023-01-22T18:25:55.099Z,13.15
2023-01-22T18:32:57.348Z,16.33
2023-01-22T18:40:00.257Z,17.33
2023-01-22T18:47:05.611Z,15.65
2023-01-22T18:54:12.250Z,13.88
2023-01-22T19:01:38.417Z,17.10
2023-01-22T19:09:02.962Z,21.52
2023-01-22T19:16:10.201Z,12.25
2023-01-22T19:23:13.140Z,14.63
2023-01-22T19:30:16.624Z,14.50
2023-01-22T19:37:20.816Z,14.48
2023-01-22T19:44:24.150Z,13.25
2023-01-22T19:51:28.128Z,13.48
2023-01-22T19:58:31.465Z,16.00
2023-01-22T20:05:38.283Z,12.50
2023-01-22T20:12:41.555Z,12.32
2023-01-22T20:19:44.575Z,14.52
2023-01-22T20:26:47.399Z,19.45
2023-01-22T20:33:57.874Z,14.35
2023-01-22T20:41:15.777Z,17.88
2023-01-22T20:48:22.024Z,15.82
2023-01-22T20:55:25.189Z,19.75
2023-01-22T21:02:29.261Z,17.08
2023-01-22T21:09:33.663Z,19.58
2023-01-22T21:16:42.000Z,25.33
2023-01-22T21:23:46.079Z,16.65
2023-01-22T21:30:49.885Z,27.60
2023-01-22T21:37:52.155Z,19.85
2023-01-22T21:45:12.526Z,25.25
2023-01-22T21:52:15.004Z,19.02
2023-01-22T21:59:17.252Z,22.73
2023-01-22T22:06:19.443Z,20.88
2023-01-22T22:13:22.324Z,18.95
2023-01-22T22:20:24.376Z,23.67
2023-01-22T22:27:27.805Z,23.23
2023-01-22T22:34:29.915Z,22.73
2023-01-22T22:41:33.823Z,23.58
2023-01-22T22:48:35.991Z,23.95
2023-01-22T22:55:41.715Z,22.55
2023-01-22T23:02:43.895Z,22.92
2023-01-22T23:09:46.117Z,22.70
2023-01-22T23:16:48.691Z,23.70
2023-01-22T23:23:51.679Z,18.80
2023-01-22T23:30:54.048Z,25.85
2023-01-22T23:37:56.086Z,23.92
2023-01-22T23:44:58.098Z,24.77
2023-01-22T23:52:00.130Z,18.52
2023-01-22T23:59:02.085Z,16.80
